Aviation Digital Data Service (ADDS)

Output produced by METARs form (0956 UTC 26 November 2014)
found at http://aviationweather.gov/adds/metars/
 
KCRG 260835Z 2609/2706 32010G18KT 4SM -RA BR OVC008 
     TEMPO 2609/2612 2SM -RA BR OVC004 
     FM261400 32017G27KT P6SM VCSH SCT007 BKN015 
     FM261900 30014G22KT P6SM SCT025 SCT250 
     FM262300 29007KT P6SM SKC